Un Karadeniz — TCTD3 — position and weather

sailwx.info

Track history (hours):
 
Tides and Currents Weather Stations Pressure Air Temp Water Temp Dewpoint Dewpoint Depression Visibility Wind Speed Wind Dir Waves Ship Positions

Un Karadeniz

Last reported at 2014-Oct-20 17:08 UTC. Time now 2014-Oct-22 04:50 UTC.
Position N 36°47' E 023°34'.

Length 193 m; draft 6.3 m.

Type: Ship (hazmat cat A). MMSI: 271002571.

Date/timePositionNaut miles runAvg speedWind from/ knotsBaromVisibWave heightAir tempDewpointWater temp
2014-Oct-20 17:08N 36°47' E 023°34'1220.3
2014-Oct-20 16:32N 36°56' E 023°44'2019.7
2014-Oct-20 15:33N 37°11' E 023°60'1919.4
2014-Oct-20 14:33N 37°26' E 024°15'2020.0
2014-Oct-20 13:33N 37°42' E 024°29'4120.1
2014-Oct-20 11:31N 38°19' E 024°52'2719.6
2014-Oct-20 10:08N 38°44' E 025°08'5319.4
2014-Oct-20 07:25N 39°30' E 025°39'2219.3
2014-Oct-20 06:17N 39°50' E 025°51'13217.0
2014-Oct-19 22:32N 40°51' E 028°25'1919.3
2014-Oct-19 21:33N 40°53' E 028°50'1818.5
2014-Oct-19 20:33N 40°51' E 029°14'2 1.8
2014-Oct-19 19:34N 40°51' E 029°16'0 0.0
2014-Oct-19 18:33N 40°51' E 029°16'0 0.0
2014-Oct-19 17:33N 40°51' E 029°16'0 0.0
2014-Oct-19 16:29N 40°51' E 029°16'0 0.0
2014-Oct-19 15:32N 40°51' E 029°16'0 0.0
2014-Oct-19 14:31N 40°51' E 029°16'0 0.0
2014-Oct-19 13:31N 40°51' E 029°16'0 0.0
2014-Oct-19 12:34N 40°51' E 029°16'4 3.5
2014-Oct-19 11:33N 40°50' E 029°12'1817.6
2014-Oct-19 10:33N 40°49' E 028°48'9117.7
2014-Oct-19 05:23N 40°28' E 026°51'5714.7
2014-Oct-19 01:29N 39°52' E 025°52'14318.0
2014-Oct-18 17:33N 37°45' E 024°31'1917.7
2014-Oct-18 16:30N 37°29' E 024°18'2718.9
2014-Oct-18 15:04N 37°08' E 023°56'918.4
2014-Oct-18 14:33N 37°01' E 023°49'1818.3
2014-Oct-18 13:33N 36°47' E 023°34'3717.4
2014-Oct-18 11:26N 36°24' E 022°57'2319.0
2014-Oct-18 10:15N 36°22' E 022°29'68315.2
2014-Oct-16 13:16N 45°39' E 013°45'  
2014-Oct-13 17:13N 36°21' E 022°29'3914.5
2014-Oct-13 14:33N 36°28' E 023°16'2019.7
2014-Oct-13 13:33N 36°44' E 023°31'2020.2
2014-Oct-13 12:33N 36°59' E 023°48'2019.6
2014-Oct-13 11:33N 37°14' E 024°03'2120.1
2014-Oct-13 10:31N 37°31' E 024°19'2020.3
2014-Oct-13 09:33N 37°48' E 024°32'2320.0
2014-Oct-13 08:25N 38°08' E 024°44'3820.4
2014-Oct-13 06:33N 38°42' E 025°07'8019.9
2014-Oct-13 02:31N 39°53' E 025°54'58 1.9
2014-Oct-11 19:21N 40°29' E 026°54'75 8.5
2014-Oct-11 10:28N 39°36' E 025°44'11817.1
2014-Oct-11 03:33N 37°52' E 024°35'1616.6
2014-Oct-11 02:33N 37°37' E 024°26'1818.0
2014-Oct-11 01:33N 37°22' E 024°12'3617.8
2014-Oct-10 23:32N 36°55' E 023°42'  
Track history (hours):
 
Tides and Currents Weather Stations Pressure Air Temp Water Temp Dewpoint Dewpoint Depression Visibility Wind Speed Wind Dir Waves Ship Positions

Un Karadeniz

Last reported at 2014-Oct-20 17:08 UTC. Time now 2014-Oct-22 04:50 UTC.
Position N 36°47' E 023°34'.

Length 193 m; draft 6.3 m.

Type: Ship (hazmat cat A). MMSI: 271002571.

Date/timePositionNaut miles runAvg speedWind from/ knotsBaromVisibWave heightAir tempDewpointWater temp
2014-Oct-20 17:08N 36°47' E 023°34'1220.3
2014-Oct-20 16:32N 36°56' E 023°44'2019.7
2014-Oct-20 15:33N 37°11' E 023°60'1919.4
2014-Oct-20 14:33N 37°26' E 024°15'2020.0
2014-Oct-20 13:33N 37°42' E 024°29'4120.1
2014-Oct-20 11:31N 38°19' E 024°52'2719.6
2014-Oct-20 10:08N 38°44' E 025°08'5319.4
2014-Oct-20 07:25N 39°30' E 025°39'2219.3
2014-Oct-20 06:17N 39°50' E 025°51'13217.0
2014-Oct-19 22:32N 40°51' E 028°25'1919.3
2014-Oct-19 21:33N 40°53' E 028°50'1818.5
2014-Oct-19 20:33N 40°51' E 029°14'2 1.8
2014-Oct-19 19:34N 40°51' E 029°16'0 0.0
2014-Oct-19 18:33N 40°51' E 029°16'0 0.0
2014-Oct-19 17:33N 40°51' E 029°16'0 0.0
2014-Oct-19 16:29N 40°51' E 029°16'0 0.0
2014-Oct-19 15:32N 40°51' E 029°16'0 0.0
2014-Oct-19 14:31N 40°51' E 029°16'0 0.0
2014-Oct-19 13:31N 40°51' E 029°16'0 0.0
2014-Oct-19 12:34N 40°51' E 029°16'4 3.5
2014-Oct-19 11:33N 40°50' E 029°12'1817.6
2014-Oct-19 10:33N 40°49' E 028°48'9117.7
2014-Oct-19 05:23N 40°28' E 026°51'5714.7
2014-Oct-19 01:29N 39°52' E 025°52'14318.0
2014-Oct-18 17:33N 37°45' E 024°31'1917.7
2014-Oct-18 16:30N 37°29' E 024°18'2718.9
2014-Oct-18 15:04N 37°08' E 023°56'918.4
2014-Oct-18 14:33N 37°01' E 023°49'1818.3
2014-Oct-18 13:33N 36°47' E 023°34'3717.4
2014-Oct-18 11:26N 36°24' E 022°57'2319.0
2014-Oct-18 10:15N 36°22' E 022°29'68315.2
2014-Oct-16 13:16N 45°39' E 013°45'  
2014-Oct-13 17:13N 36°21' E 022°29'3914.5
2014-Oct-13 14:33N 36°28' E 023°16'2019.7
2014-Oct-13 13:33N 36°44' E 023°31'2020.2
2014-Oct-13 12:33N 36°59' E 023°48'2019.6
2014-Oct-13 11:33N 37°14' E 024°03'2120.1
2014-Oct-13 10:31N 37°31' E 024°19'2020.3
2014-Oct-13 09:33N 37°48' E 024°32'2320.0
2014-Oct-13 08:25N 38°08' E 024°44'3820.4
2014-Oct-13 06:33N 38°42' E 025°07'8019.9
2014-Oct-13 02:31N 39°53' E 025°54'58 1.9
2014-Oct-11 19:21N 40°29' E 026°54'75 8.5
2014-Oct-11 10:28N 39°36' E 025°44'11817.1
2014-Oct-11 03:33N 37°52' E 024°35'1616.6
2014-Oct-11 02:33N 37°37' E 024°26'1818.0
2014-Oct-11 01:33N 37°22' E 024°12'3617.8
2014-Oct-10 23:32N 36°55' E 023°42'  

Dump ship's entire track history